Time;durP1;ratioP1;P1;durP2;ratioP2;P2;SDS_P1;SDS_P2;PMS_P1;PMS_P2;Temp;Humidity;BMP_temperature;BMP_pressure;BME280_temperature;BME280_humidity;BME280_pressure;Samples;Min_cycle;Max_cycle;Signal;HPM_P1;HPM_P2
2022/07/05 00:00:58;;;;;;;0.97;0.97;;;;;;;;;;6064192;23;20224;-80
2022/07/05 00:03:27;;;;;;;0.93;0.93;;;;;;;;;;6063046;23;20232;-80
2022/07/05 00:05:56;;;;;;;0.60;0.60;;;;;;;;;;6063175;23;20268;-80
2022/07/05 00:08:25;;;;;;;0.50;0.50;;;;;;;;;;6062883;23;20179;-80
2022/07/05 00:10:53;;;;;;;0.67;0.67;;;;;;;;;;6062764;23;20262;-80
2022/07/05 00:13:23;;;;;;;2.73;1.37;;;;;;;;;;6062962;23;20197;-80
2022/07/05 00:15:52;;;;;;;3.00;1.00;;;;;;;;;;6064092;23;20174;-80
2022/07/05 00:18:20;;;;;;;1.30;1.20;;;;;;;;;;6063031;23;20224;-80
2022/07/05 00:20:49;;;;;;;2.43;2.40;;;;;;;;;;6156606;23;20203;-80
2022/07/05 00:23:17;;;;;;;1.03;1.00;;;;;;;;;;6189423;23;20175;-80
2022/07/05 00:25:45;;;;;;;1.10;1.10;;;;;;;;;;6189115;23;20193;-80
2022/07/05 00:28:15;;;;;;;3.73;0.90;;;;;;;;;;6189421;23;20306;-80
2022/07/05 00:30:45;;;;;;;0.47;0.47;;;;;;;;;;6215538;23;20174;-80
2022/07/05 00:33:13;;;;;;;0.40;0.40;;;;;;;;;;6215830;23;20171;-80
2022/07/05 00:35:41;;;;;;;0.77;0.77;;;;;;;;;;6215961;23;20197;-80
2022/07/05 00:38:10;;;;;;;0.60;0.60;;;;;;;;;;6189613;23;20203;-80
2022/07/05 00:40:38;;;;;;;0.50;0.50;;;;;;;;;;6189697;23;20174;-80
2022/07/05 00:43:07;;;;;;;0.30;0.30;;;;;;;;;;6189203;23;20213;-80
2022/07/05 00:45:36;;;;;;;1.20;1.10;;;;;;;;;;6189382;23;20174;-80
2022/07/05 00:48:06;;;;;;;1.17;1.10;;;;;;;;;;6189070;23;20174;-80
2022/07/05 00:50:35;;;;;;;0.90;0.90;;;;;;;;;;6188452;23;20178;-80
2022/07/05 00:53:03;;;;;;;0.30;0.30;;;;;;;;;;6215860;23;20178;-80
2022/07/05 00:55:32;;;;;;;0.80;0.80;;;;;;;;;;6190640;23;20257;-80
2022/07/05 00:58:01;;;;;;;0.47;0.47;;;;;;;;;;6217528;23;20195;-80
2022/07/05 01:00:29;;;;;;;0.40;0.40;;;;;;;;;;6191202;23;20181;-80
2022/07/05 01:02:58;;;;;;;0.30;0.30;;;;;;;;;;6217467;23;20170;-80
2022/07/05 01:05:28;;;;;;;0.30;0.30;;;;;;;;;;6191278;23;20183;-80
2022/07/05 01:07:57;;;;;;;0.30;0.30;;;;;;;;;;6190727;23;20180;-79
2022/07/05 01:10:25;;;;;;;0.57;0.57;;;;;;;;;;6190856;23;20176;-80
2022/07/05 01:12:54;;;;;;;0.73;0.73;;;;;;;;;;6190834;23;20206;-79
2022/07/05 01:15:23;;;;;;;0.60;0.60;;;;;;;;;;6191216;23;20178;-79
2022/07/05 01:17:51;;;;;;;0.60;0.60;;;;;;;;;;6217034;23;20249;-80
2022/07/05 01:20:20;;;;;;;1.70;0.80;;;;;;;;;;6216281;23;20289;-79
2022/07/05 01:22:53;;;;;;;0.73;0.73;;;;;;;;;;6190496;23;20175;-79
2022/07/05 01:25:22;;;;;;;1.17;1.03;;;;;;;;;;6190801;23;20181;-80
2022/07/05 01:27:51;;;;;;;1.43;1.10;;;;;;;;;;6190607;23;20225;-78
2022/07/05 01:30:20;;;;;;;1.73;1.20;;;;;;;;;;6190665;23;20224;-80
2022/07/05 01:32:48;;;;;;;0.70;0.70;;;;;;;;;;6191306;23;20174;-79
2022/07/05 01:35:20;;;;;;;0.50;0.50;;;;;;;;;;6190853;23;20182;-79
2022/07/05 01:37:49;;;;;;;0.30;0.30;;;;;;;;;;6191003;23;20269;-80
2022/07/05 01:40:19;;;;;;;0.33;0.33;;;;;;;;;;6217152;23;20252;-79
2022/07/05 01:42:48;;;;;;;0.50;0.50;;;;;;;;;;6190853;23;20176;-80
2022/07/05 01:45:38;;;;;;;2.13;0.40;;;;;;;;;;6217048;23;20198;-80
2022/07/05 01:48:07;;;;;;;1.00;1.00;;;;;;;;;;6190460;23;20178;-79
2022/07/05 01:50:37;;;;;;;0.60;0.60;;;;;;;;;;6190972;23;20225;-80
2022/07/05 01:53:06;;;;;;;0.47;0.47;;;;;;;;;;6216934;23;20177;-79
2022/07/05 01:55:36;;;;;;;1.53;1.43;;;;;;;;;;6217093;23;20181;-80
2022/07/05 01:58:05;;;;;;;0.53;0.53;;;;;;;;;;6216792;23;20175;-80
2022/07/05 02:00:42;;;;;;;1.03;1.03;;;;;;;;;;6190953;23;20180;-80
2022/07/05 02:03:11;;;;;;;0.57;0.57;;;;;;;;;;6216875;23;20174;-80
2022/07/05 02:05:39;;;;;;;1.70;0.93;;;;;;;;;;6216710;23;20181;-80
2022/07/05 02:08:08;;;;;;;0.80;0.80;;;;;;;;;;6190305;23;20183;-80
2022/07/05 02:10:38;;;;;;;0.40;0.40;;;;;;;;;;6216865;23;20167;-80
2022/07/05 02:13:07;;;;;;;0.40;0.40;;;;;;;;;;6190334;23;20174;-80
2022/07/05 02:15:36;;;;;;;0.40;0.40;;;;;;;;;;6190426;23;20182;-80
2022/07/05 02:18:05;;;;;;;0.87;0.60;;;;;;;;;;6190375;23;20197;-80
2022/07/05 02:20:34;;;;;;;0.47;0.47;;;;;;;;;;6216619;23;20282;-80
2022/07/05 02:23:02;;;;;;;1.93;1.83;;;;;;;;;;6216777;23;20403;-80
2022/07/05 02:25:31;;;;;;;0.50;0.50;;;;;;;;;;6216693;23;20173;-80
2022/07/05 02:28:01;;;;;;;0.70;0.70;;;;;;;;;;6190554;23;20418;-80
2022/07/05 02:30:29;;;;;;;1.10;0.70;;;;;;;;;;6190470;23;20225;-80
2022/07/05 02:32:58;;;;;;;0.30;0.30;;;;;;;;;;6190337;23;20178;-80
2022/07/05 02:35:26;;;;;;;1.20;1.10;;;;;;;;;;6190232;23;20178;-80
2022/07/05 02:37:55;;;;;;;2.53;1.57;;;;;;;;;;6190155;23;20170;-80
2022/07/05 02:40:23;;;;;;;1.00;1.00;;;;;;;;;;6190015;23;20262;-80
2022/07/05 02:42:51;;;;;;;2.17;1.00;;;;;;;;;;6216663;23;20172;-80
2022/07/05 02:45:21;;;;;;;0.60;0.60;;;;;;;;;;6216550;23;20178;-81
2022/07/05 02:47:50;;;;;;;0.40;0.40;;;;;;;;;;6190275;23;20175;-80
2022/07/05 02:50:18;;;;;;;0.50;0.50;;;;;;;;;;6216504;23;20171;-80
2022/07/05 02:52:47;;;;;;;0.40;0.40;;;;;;;;;;6189905;23;20178;-80
2022/07/05 02:55:15;;;;;;;0.40;0.40;;;;;;;;;;6190396;23;20175;-80
2022/07/05 02:57:43;;;;;;;0.50;0.50;;;;;;;;;;6190162;23;20176;-80
2022/07/05 03:00:12;;;;;;;0.30;0.30;;;;;;;;;;6216634;23;20191;-80
2022/07/05 03:02:42;;;;;;;0.40;0.40;;;;;;;;;;6190108;23;20182;-80
2022/07/05 03:05:11;;;;;;;0.40;0.40;;;;;;;;;;6189974;23;20181;-80
2022/07/05 03:07:39;;;;;;;0.40;0.40;;;;;;;;;;6189799;23;20197;-80
2022/07/05 03:10:08;;;;;;;1.00;1.00;;;;;;;;;;6189730;23;20193;-80
2022/07/05 03:12:36;;;;;;;0.53;0.53;;;;;;;;;;6216038;23;20180;-80
2022/07/05 03:15:05;;;;;;;0.80;0.80;;;;;;;;;;6189756;23;20178;-79
2022/07/05 03:17:38;;;;;;;1.43;1.33;;;;;;;;;;6215710;23;20170;-80
2022/07/05 03:20:08;;;;;;;4.83;1.00;;;;;;;;;;6146387;23;20215;-79
2022/07/05 03:22:54;;;;;;;0.40;0.40;;;;;;;;;;5091001;27;20548;-79
2022/07/05 03:25:22;;;;;;;0.60;0.60;;;;;;;;;;5091150;28;20217;-79
2022/07/05 03:27:51;;;;;;;1.17;1.17;;;;;;;;;;5085429;28;20203;-79
2022/07/05 03:30:19;;;;;;;0.93;0.93;;;;;;;;;;5089829;28;20192;-78
2022/07/05 03:32:48;;;;;;;0.47;0.47;;;;;;;;;;5090588;28;20192;-79
2022/07/05 03:35:16;;;;;;;2.17;1.30;;;;;;;;;;5089633;28;20200;-79
2022/07/05 03:37:44;;;;;;;0.93;0.90;;;;;;;;;;5089879;28;20203;-79
2022/07/05 03:40:14;;;;;;;1.13;1.13;;;;;;;;;;5106542;28;20390;-79
2022/07/05 03:42:42;;;;;;;2.07;0.53;;;;;;;;;;5069247;28;20220;-79
2022/07/05 03:45:11;;;;;;;2.57;2.40;;;;;;;;;;5082508;28;20258;-79
2022/07/05 03:47:40;;;;;;;0.40;0.40;;;;;;;;;;5090157;28;20203;-79
2022/07/05 03:50:08;;;;;;;0.30;0.30;;;;;;;;;;5077811;28;20204;-79
2022/07/05 03:52:37;;;;;;;0.60;0.60;;;;;;;;;;5087704;28;20197;-79
2022/07/05 03:55:06;;;;;;;1.07;1.07;;;;;;;;;;5079541;28;20218;-80
2022/07/05 03:57:36;;;;;;;0.50;0.50;;;;;;;;;;5083479;28;20221;-80
2022/07/05 04:00:04;;;;;;;0.90;0.87;;;;;;;;;;5085746;28;20201;-80
2022/07/05 04:02:33;;;;;;;0.60;0.60;;;;;;;;;;5071869;28;20210;-80
2022/07/05 04:05:01;;;;;;;1.87;1.10;;;;;;;;;;5080596;28;20213;-80
2022/07/05 04:07:30;;;;;;;0.87;0.87;;;;;;;;;;5069280;28;20213;-80
2022/07/05 04:09:58;;;;;;;2.13;1.07;;;;;;;;;;5082122;28;20205;-80
2022/07/05 04:12:27;;;;;;;0.50;0.50;;;;;;;;;;5099201;28;20202;-81
2022/07/05 04:14:57;;;;;;;0.40;0.40;;;;;;;;;;5069290;28;20207;-80
2022/07/05 04:17:25;;;;;;;0.93;0.83;;;;;;;;;;5082164;28;20201;-80
2022/07/05 04:19:54;;;;;;;0.40;0.40;;;;;;;;;;5074443;28;20225;-80
2022/07/05 04:22:22;;;;;;;0.40;0.40;;;;;;;;;;5088562;28;20236;-80
2022/07/05 04:27:36;;;;;;;0.40;0.40;;;;;;;;;;5080568;28;20201;-80
2022/07/05 04:30:07;;;;;;;1.00;0.93;;;;;;;;;;5073968;28;20240;-80
2022/07/05 04:32:35;;;;;;;0.40;0.40;;;;;;;;;;5077456;28;20200;-80
2022/07/05 04:35:04;;;;;;;0.60;0.60;;;;;;;;;;5054856;28;20210;-79
2022/07/05 04:37:32;;;;;;;0.40;0.40;;;;;;;;;;5061018;28;20190;-80
2022/07/05 04:40:01;;;;;;;1.43;1.33;;;;;;;;;;5074884;28;20214;-80
2022/07/05 04:42:29;;;;;;;0.40;0.40;;;;;;;;;;5060610;28;20234;-80
2022/07/05 04:44:58;;;;;;;0.40;0.40;;;;;;;;;;5063601;28;20312;-80
2022/07/05 04:47:27;;;;;;;1.17;0.70;;;;;;;;;;5072555;28;20196;-80
2022/07/05 04:49:57;;;;;;;0.40;0.40;;;;;;;;;;5075864;28;20217;-80
2022/07/05 04:52:26;;;;;;;0.50;0.50;;;;;;;;;;5058040;28;20205;-80
2022/07/05 04:54:54;;;;;;;0.40;0.40;;;;;;;;;;5077482;28;20206;-80
2022/07/05 04:57:23;;;;;;;0.60;0.60;;;;;;;;;;5077243;28;20207;-80
2022/07/05 04:59:51;;;;;;;0.40;0.40;;;;;;;;;;5074517;28;20252;-80
2022/07/05 05:02:20;;;;;;;0.40;0.40;;;;;;;;;;5075636;28;20211;-80
2022/07/05 05:04:49;;;;;;;0.40;0.40;;;;;;;;;;5061262;28;20204;-80
2022/07/05 05:07:18;;;;;;;1.67;1.57;;;;;;;;;;5061420;28;20217;-79
2022/07/05 05:09:46;;;;;;;0.80;0.80;;;;;;;;;;5068381;28;20199;-79
2022/07/05 05:12:15;;;;;;;0.40;0.40;;;;;;;;;;5054395;28;20287;-79
2022/07/05 05:14:44;;;;;;;0.30;0.30;;;;;;;;;;5086108;28;20203;-81
2022/07/05 05:17:12;;;;;;;2.57;0.47;;;;;;;;;;5065123;28;20199;-80
2022/07/05 05:19:41;;;;;;;0.30;0.30;;;;;;;;;;5061030;28;20235;-80
2022/07/05 05:22:11;;;;;;;0.50;0.50;;;;;;;;;;5074067;28;20281;-80
2022/07/05 05:24:40;;;;;;;1.00;0.70;;;;;;;;;;5058103;28;20203;-80
2022/07/05 05:27:08;;;;;;;1.00;1.00;;;;;;;;;;5058816;28;20194;-80
2022/07/05 05:29:37;;;;;;;1.53;0.67;;;;;;;;;;5063524;28;20217;-80
2022/07/05 05:32:05;;;;;;;0.53;0.53;;;;;;;;;;5068553;28;20205;-81
2022/07/05 05:34:34;;;;;;;0.40;0.40;;;;;;;;;;5064894;28;20205;-80
2022/07/05 05:37:02;;;;;;;0.30;0.30;;;;;;;;;;5060046;28;20254;-81
2022/07/05 05:39:32;;;;;;;0.40;0.40;;;;;;;;;;5074642;28;20221;-81
2022/07/05 05:42:00;;;;;;;0.30;0.30;;;;;;;;;;5060587;28;20223;-81
2022/07/05 05:44:29;;;;;;;0.40;0.40;;;;;;;;;;5074344;28;20209;-81
2022/07/05 05:46:57;;;;;;;0.60;0.60;;;;;;;;;;5060230;28;20262;-81
2022/07/05 05:49:25;;;;;;;0.37;0.37;;;;;;;;;;5053726;28;20198;-81
2022/07/05 05:51:54;;;;;;;1.53;0.40;;;;;;;;;;5065965;28;20192;-81
2022/07/05 05:54:23;;;;;;;0.40;0.40;;;;;;;;;;5059631;28;20289;-81
2022/07/05 05:56:52;;;;;;;0.73;0.73;;;;;;;;;;5073449;28;20195;-81
2022/07/05 05:59:21;;;;;;;0.60;0.60;;;;;;;;;;5056036;28;20293;-81
2022/07/05 06:01:49;;;;;;;1.63;0.97;;;;;;;;;;5053704;28;20198;-81
2022/07/05 06:04:18;;;;;;;2.27;0.60;;;;;;;;;;5056035;28;20192;-81
2022/07/05 06:06:47;;;;;;;0.80;0.77;;;;;;;;;;5064701;28;20222;-81
2022/07/05 06:09:15;;;;;;;3.20;0.93;;;;;;;;;;5069639;28;20210;-81
2022/07/05 06:11:44;;;;;;;1.33;0.87;;;;;;;;;;5067020;28;20197;-80
2022/07/05 06:14:13;;;;;;;1.17;0.80;;;;;;;;;;5067152;28;20195;-81
2022/07/05 06:16:42;;;;;;;3.30;0.70;;;;;;;;;;5054499;28;20211;-81
2022/07/05 06:19:10;;;;;;;0.73;0.73;;;;;;;;;;5080055;28;20233;-81
2022/07/05 06:21:39;;;;;;;0.60;0.60;;;;;;;;;;5072340;28;20247;-80
2022/07/05 06:24:07;;;;;;;0.23;0.23;;;;;;;;;;5062054;28;20302;-81
2022/07/05 06:26:36;;;;;;;0.50;0.50;;;;;;;;;;5070969;28;20204;-80
2022/07/05 06:29:04;;;;;;;2.43;1.00;;;;;;;;;;5065846;28;20207;-80
2022/07/05 06:31:34;;;;;;;3.90;3.50;;;;;;;;;;5065431;28;20253;-80
2022/07/05 06:34:03;;;;;;;5.00;1.17;;;;;;;;;;5053609;28;20198;-81
2022/07/05 06:36:31;;;;;;;0.50;0.50;;;;;;;;;;5064841;28;20211;-81
2022/07/05 06:39:00;;;;;;;3.53;1.73;;;;;;;;;;5069686;28;20206;-80
2022/07/05 06:41:28;;;;;;;3.27;1.33;;;;;;;;;;5059816;28;20208;-80
2022/07/05 06:44:00;;;;;;;1.23;1.13;;;;;;;;;;5086635;28;20224;-81
2022/07/05 06:46:50;;;;;;;0.73;0.67;;;;;;;;;;5060482;28;20335;-81
2022/07/05 06:49:18;;;;;;;1.03;0.83;;;;;;;;;;5083730;28;20230;-80
2022/07/05 06:51:47;;;;;;;4.77;1.40;;;;;;;;;;5054307;28;20289;-80
2022/07/05 06:54:16;;;;;;;1.10;1.10;;;;;;;;;;5052447;28;20190;-80
2022/07/05 06:57:05;;;;;;;8.10;1.50;;;;;;;;;;5052431;28;20208;-81
2022/07/05 06:59:54;;;;;;;0.67;0.67;;;;;;;;;;5060736;28;20213;-80
2022/07/05 07:02:25;;;;;;;0.73;0.70;;;;;;;;;;5072508;28;20218;-81
2022/07/05 07:04:54;;;;;;;1.53;0.93;;;;;;;;;;5072551;28;20200;-79
2022/07/05 07:10:26;;;;;;;0.50;0.50;;;;;;;;;;5061652;28;20246;-80
2022/07/05 07:12:57;;;;;;;0.50;0.50;;;;;;;;;;5083267;28;20199;-81
2022/07/05 07:15:26;;;;;;;0.33;0.33;;;;;;;;;;5062557;28;20212;-80
2022/07/05 07:17:56;;;;;;;0.40;0.40;;;;;;;;;;5072570;28;20205;-80
2022/07/05 07:20:27;;;;;;;0.50;0.50;;;;;;;;;;5064488;28;20239;-81
2022/07/05 07:22:56;;;;;;;2.93;2.30;;;;;;;;;;5051996;28;20242;-80
2022/07/05 07:25:24;;;;;;;1.60;1.27;;;;;;;;;;5060586;28;20237;-80
2022/07/05 07:27:54;;;;;;;0.50;0.50;;;;;;;;;;5070808;28;20203;-80
2022/07/05 07:30:24;;;;;;;1.30;0.70;;;;;;;;;;5058313;28;20203;-81
2022/07/05 07:32:52;;;;;;;1.27;0.90;;;;;;;;;;5062718;28;20201;-80
2022/07/05 07:35:22;;;;;;;1.87;0.70;;;;;;;;;;5068150;28;20198;-80
2022/07/05 07:37:51;;;;;;;1.10;1.00;;;;;;;;;;5064018;28;20203;-80
2022/07/05 07:40:19;;;;;;;0.60;0.60;;;;;;;;;;5053037;28;20203;-80
2022/07/05 07:42:51;;;;;;;1.10;0.93;;;;;;;;;;5053452;28;20209;-84
2022/07/05 07:45:22;;;;;;;2.67;1.00;;;;;;;;;;5069339;28;20307;-80
2022/07/05 07:47:50;;;;;;;2.73;0.80;;;;;;;;;;5054808;28;20293;-81
2022/07/05 07:50:19;;;;;;;1.27;0.50;;;;;;;;;;5052584;28;20198;-82
2022/07/05 07:52:49;;;;;;;0.73;0.70;;;;;;;;;;5059179;28;20231;-81
2022/07/05 07:55:17;;;;;;;4.03;1.03;;;;;;;;;;5056353;28;20228;-81
2022/07/05 07:57:46;;;;;;;0.87;0.80;;;;;;;;;;5054183;28;20255;-81
2022/07/05 08:00:15;;;;;;;0.50;0.50;;;;;;;;;;5062957;28;20202;-82
2022/07/05 08:02:43;;;;;;;0.60;0.60;;;;;;;;;;5056003;28;20271;-83
2022/07/05 08:05:12;;;;;;;0.50;0.50;;;;;;;;;;5058431;28;20217;-82
2022/07/05 08:07:41;;;;;;;1.30;1.20;;;;;;;;;;5053885;28;20198;-82
2022/07/05 08:10:11;;;;;;;0.40;0.40;;;;;;;;;;5063474;28;20227;-82
2022/07/05 08:12:40;;;;;;;1.97;0.60;;;;;;;;;;5063068;28;20208;-81
2022/07/05 08:15:09;;;;;;;1.17;0.80;;;;;;;;;;5055364;28;20208;-83
2022/07/05 08:21:30;;;;;;;0.40;0.40;;;;;;;;;;5057461;28;20213;-82
2022/07/05 08:23:18;;;;;;;0.83;0.83;;;;;;;;;;5073812;28;20206;-81
2022/07/05 08:25:48;;;;;;;1.93;0.90;;;;;;;;;;5062056;28;20278;-81
2022/07/05 08:28:16;;;;;;;1.20;1.00;;;;;;;;;;5057282;28;20229;-81
2022/07/05 08:30:45;;;;;;;2.57;1.67;;;;;;;;;;5054387;28;20205;-81
2022/07/05 08:33:13;;;;;;;3.07;1.13;;;;;;;;;;5060738;28;20226;-81
2022/07/05 08:35:42;;;;;;;1.47;1.37;;;;;;;;;;5063732;28;20206;-81
2022/07/05 08:38:12;;;;;;;2.10;1.90;;;;;;;;;;5056383;28;20291;-81
2022/07/05 08:40:43;;;;;;;5.93;2.47;;;;;;;;;;5054242;28;20205;-81
2022/07/05 08:43:14;;;;;;;2.53;2.07;;;;;;;;;;5058958;28;20204;-81
2022/07/05 08:45:44;;;;;;;4.07;1.40;;;;;;;;;;5056829;28;20287;-82
2022/07/05 08:48:17;;;;;;;0.67;0.67;;;;;;;;;;5059989;28;20215;-81
2022/07/05 08:50:48;;;;;;;1.47;0.67;;;;;;;;;;5057340;28;20221;-81
2022/07/05 08:53:20;;;;;;;1.00;0.97;;;;;;;;;;5057980;28;20236;-81
2022/07/05 08:55:48;;;;;;;0.50;0.50;;;;;;;;;;5075496;28;20195;-81
2022/07/05 08:58:18;;;;;;;2.53;1.60;;;;;;;;;;5054811;28;20190;-82
2022/07/05 09:00:47;;;;;;;3.10;1.10;;;;;;;;;;5069788;28;20195;-81
2022/07/05 09:03:16;;;;;;;0.87;0.87;;;;;;;;;;5058870;28;20229;-82
2022/07/05 09:05:45;;;;;;;2.43;1.30;;;;;;;;;;5069535;28;20222;-82
2022/07/05 09:08:15;;;;;;;1.00;1.00;;;;;;;;;;5062636;28;20194;-82
2022/07/05 09:10:44;;;;;;;1.37;1.13;;;;;;;;;;5065411;28;20201;-82
2022/07/05 09:13:17;;;;;;;3.23;1.10;;;;;;;;;;5054833;28;20233;-81
2022/07/05 09:15:46;;;;;;;1.20;1.10;;;;;;;;;;5069032;28;20193;-81
2022/07/05 09:18:28;;;;;;;2.80;1.33;;;;;;;;;;5054828;28;20270;-81
2022/07/05 09:21:12;;;;;;;1.10;0.80;;;;;;;;;;5065458;28;20277;-81
2022/07/05 09:23:41;;;;;;;2.87;1.50;;;;;;;;;;5053316;28;20202;-82
2022/07/05 09:26:09;;;;;;;0.50;0.50;;;;;;;;;;5060681;28;20198;-82
2022/07/05 09:28:38;;;;;;;4.00;1.10;;;;;;;;;;5065628;28;20206;-82
2022/07/05 09:31:08;;;;;;;5.40;1.70;;;;;;;;;;5055032;28;20221;-82
2022/07/05 09:33:50;;;;;;;0.97;0.83;;;;;;;;;;5068317;28;20206;-81
2022/07/05 09:36:19;;;;;;;0.60;0.60;;;;;;;;;;5072536;28;20204;-81
2022/07/05 09:38:51;;;;;;;5.50;1.20;;;;;;;;;;5068291;28;20204;-82
2022/07/05 09:41:20;;;;;;;0.87;0.87;;;;;;;;;;5064902;28;20230;-81
2022/07/05 09:43:48;;;;;;;3.10;1.40;;;;;;;;;;5069969;28;20203;-81
2022/07/05 09:46:31;;;;;;;0.83;0.83;;;;;;;;;;5065266;28;20249;-81
2022/07/05 09:48:59;;;;;;;4.80;0.93;;;;;;;;;;5063641;28;20212;-81
2022/07/05 09:51:28;;;;;;;1.20;0.80;;;;;;;;;;5060081;28;20255;-81
2022/07/05 09:54:16;;;;;;;2.07;0.80;;;;;;;;;;5084566;28;20192;-81
2022/07/05 09:56:45;;;;;;;1.53;0.77;;;;;;;;;;5053044;28;20200;-82
2022/07/05 09:59:18;;;;;;;1.40;1.37;;;;;;;;;;5055976;28;20228;-81
2022/07/05 10:01:51;;;;;;;0.70;0.70;;;;;;;;;;5066538;28;20200;-82
2022/07/05 10:04:20;;;;;;;2.40;1.50;;;;;;;;;;5059986;28;20238;-81
2022/07/05 10:06:50;;;;;;;2.97;1.43;;;;;;;;;;5058271;28;20200;-81
2022/07/05 10:09:19;;;;;;;1.23;1.10;;;;;;;;;;5060331;28;20266;-82
2022/07/05 10:11:47;;;;;;;0.70;0.67;;;;;;;;;;5065638;28;20206;-81
2022/07/05 10:14:17;;;;;;;0.80;0.80;;;;;;;;;;5058384;28;20199;-81
2022/07/05 10:17:02;;;;;;;0.77;0.77;;;;;;;;;;5061584;28;20209;-81
2022/07/05 10:19:35;;;;;;;0.50;0.50;;;;;;;;;;5053637;28;20225;-81
2022/07/05 10:22:05;;;;;;;1.87;0.73;;;;;;;;;;5062847;28;20233;-81
2022/07/05 10:24:49;;;;;;;0.90;0.87;;;;;;;;;;5054234;28;20327;-81
2022/07/05 10:27:20;;;;;;;2.87;1.43;;;;;;;;;;5058392;28;20205;-81
2022/07/05 10:29:51;;;;;;;1.53;0.90;;;;;;;;;;5055455;28;20232;-81
2022/07/05 10:32:21;;;;;;;1.90;1.70;;;;;;;;;;5060883;28;20201;-82
2022/07/05 10:34:51;;;;;;;1.87;1.20;;;;;;;;;;5057249;28;20201;-81
2022/07/05 10:37:33;;;;;;;1.77;0.90;;;;;;;;;;5055306;28;20203;-80
2022/07/05 10:40:03;;;;;;;0.97;0.97;;;;;;;;;;5061713;28;20203;-82
2022/07/05 10:42:33;;;;;;;0.97;0.97;;;;;;;;;;5059560;28;20236;-82
2022/07/05 10:45:05;;;;;;;2.73;2.53;;;;;;;;;;5053456;28;20211;-82
2022/07/05 10:47:37;;;;;;;4.97;1.60;;;;;;;;;;5066048;28;20190;-81
2022/07/05 10:50:07;;;;;;;3.40;0.87;;;;;;;;;;5064936;28;20205;-81
2022/07/05 10:52:35;;;;;;;0.77;0.77;;;;;;;;;;5056500;28;20296;-81
2022/07/05 10:55:21;;;;;;;0.53;0.53;;;;;;;;;;5057367;28;20228;-82
2022/07/05 10:58:08;;;;;;;0.97;0.90;;;;;;;;;;5060649;28;20207;-81
2022/07/05 11:00:36;;;;;;;1.70;0.97;;;;;;;;;;5049532;28;20218;-81
2022/07/05 11:03:28;;;;;;;1.13;0.70;;;;;;;;;;5053161;28;20208;-82
2022/07/05 11:05:57;;;;;;;1.13;1.13;;;;;;;;;;5060237;28;20220;-82
2022/07/05 11:08:25;;;;;;;0.70;0.70;;;;;;;;;;5057691;28;20195;-82
2022/07/05 11:11:11;;;;;;;1.30;0.83;;;;;;;;;;5058778;28;20198;-82
2022/07/05 11:13:43;;;;;;;0.93;0.93;;;;;;;;;;5051549;28;20193;-81
2022/07/05 11:16:33;;;;;;;2.77;1.23;;;;;;;;;;5054303;28;20239;-82
2022/07/05 11:19:08;;;;;;;1.00;1.00;;;;;;;;;;5055099;28;20227;-81
2022/07/05 11:21:37;;;;;;;1.80;1.50;;;;;;;;;;5061032;28;20255;-81
2022/07/05 11:24:19;;;;;;;1.33;1.00;;;;;;;;;;5055671;28;20199;-81
2022/07/05 11:26:49;;;;;;;1.00;0.67;;;;;;;;;;5052809;28;20227;-82
2022/07/05 11:29:32;;;;;;;3.37;1.00;;;;;;;;;;5053078;28;20212;-82
2022/07/05 11:32:06;;;;;;;2.10;1.23;;;;;;;;;;5058980;28;20199;-82
2022/07/05 11:34:36;;;;;;;0.97;0.80;;;;;;;;;;5055389;28;20204;-82
2022/07/05 11:37:23;;;;;;;4.47;1.13;;;;;;;;;;5051942;28;20230;-81
2022/07/05 11:40:21;;;;;;;0.70;0.67;;;;;;;;;;5053749;28;20218;-81
2022/07/05 11:42:50;;;;;;;1.50;0.97;;;;;;;;;;5043018;28;20639;-81
2022/07/05 11:45:19;;;;;;;2.40;1.23;;;;;;;;;;5071884;28;20205;-82
2022/07/05 11:47:47;;;;;;;1.97;1.30;;;;;;;;;;5067409;28;20204;-82
2022/07/05 11:50:17;;;;;;;1.53;1.23;;;;;;;;;;5061256;28;20215;-82
2022/07/05 11:52:47;;;;;;;1.03;1.03;;;;;;;;;;5060796;28;20211;-82
2022/07/05 11:55:16;;;;;;;2.13;0.73;;;;;;;;;;5062386;28;20205;-82
2022/07/05 11:57:50;;;;;;;1.17;0.90;;;;;;;;;;5063418;28;20205;-82
2022/07/05 12:00:27;;;;;;;1.67;1.17;;;;;;;;;;5063710;28;20198;-82
2022/07/05 12:02:56;;;;;;;6.30;1.63;;;;;;;;;;5068483;28;20221;-82
2022/07/05 12:05:30;;;;;;;0.97;0.83;;;;;;;;;;5065353;28;20246;-81
2022/07/05 12:07:59;;;;;;;1.67;1.17;;;;;;;;;;5063872;28;20196;-82
2022/07/05 12:13:32;;;;;;;3.77;1.50;;;;;;;;;;5063141;28;20202;-82
2022/07/05 12:16:01;;;;;;;1.00;0.67;;;;;;;;;;5061225;28;20218;-82
2022/07/05 12:18:29;;;;;;;0.80;0.80;;;;;;;;;;5060674;28;20222;-82
2022/07/05 12:21:01;;;;;;;2.57;1.37;;;;;;;;;;5069928;28;20250;-82
2022/07/05 12:23:31;;;;;;;0.57;0.57;;;;;;;;;;5064121;28;20250;-82
2022/07/05 12:26:00;;;;;;;0.80;0.80;;;;;;;;;;5065053;28;20273;-81
2022/07/05 12:28:28;;;;;;;0.90;0.90;;;;;;;;;;5069328;28;20221;-82
2022/07/05 12:30:57;;;;;;;0.70;0.70;;;;;;;;;;5060797;28;20206;-81
2022/07/05 12:33:30;;;;;;;2.47;2.27;;;;;;;;;;5059778;28;20205;-81
2022/07/05 12:36:00;;;;;;;3.87;1.27;;;;;;;;;;5055883;28;20301;-82
2022/07/05 12:38:30;;;;;;;0.80;0.80;;;;;;;;;;5064790;28;20299;-82
2022/07/05 12:41:00;;;;;;;3.13;1.60;;;;;;;;;;5065007;28;20205;-83
2022/07/05 12:43:29;;;;;;;1.50;1.13;;;;;;;;;;5057430;28;20204;-83
2022/07/05 12:46:01;;;;;;;0.87;0.87;;;;;;;;;;5055136;28;20233;-82
2022/07/05 12:48:33;;;;;;;4.47;1.40;;;;;;;;;;5066323;28;20205;-82
2022/07/05 12:51:03;;;;;;;1.77;1.53;;;;;;;;;;5060932;28;20192;-82
2022/07/05 12:59:40;;;;;;;2.67;1.10;;;;;;;;;;5058627;28;20237;-81
2022/07/05 13:02:09;;;;;;;1.87;1.00;;;;;;;;;;5060241;28;20208;-81
2022/07/05 13:04:39;;;;;;;5.47;1.53;;;;;;;;;;5055523;28;20197;-81
2022/07/05 13:07:26;;;;;;;0.70;0.70;;;;;;;;;;5056545;28;20216;-81
2022/07/05 13:10:19;;;;;;;1.40;1.30;;;;;;;;;;5080114;28;20214;-82
2022/07/05 13:12:48;;;;;;;0.90;0.90;;;;;;;;;;5054632;28;20251;-81
2022/07/05 13:15:16;;;;;;;0.80;0.80;;;;;;;;;;5059990;28;20393;-81
2022/07/05 13:17:45;;;;;;;5.00;1.43;;;;;;;;;;5060794;28;20205;-81
2022/07/05 13:20:16;;;;;;;1.47;1.00;;;;;;;;;;5057303;28;20344;-81
2022/07/05 13:22:46;;;;;;;3.50;1.30;;;;;;;;;;5058248;28;20252;-82
2022/07/05 13:25:15;;;;;;;0.80;0.80;;;;;;;;;;5061612;28;20217;-82
2022/07/05 13:27:43;;;;;;;1.30;1.03;;;;;;;;;;5053782;28;20220;-81
2022/07/05 13:30:13;;;;;;;0.60;0.60;;;;;;;;;;5057580;28;20197;-81
2022/07/05 13:32:42;;;;;;;5.03;1.50;;;;;;;;;;5056655;28;20203;-82
2022/07/05 13:35:11;;;;;;;2.97;1.47;;;;;;;;;;5055455;28;20206;-80
2022/07/05 13:37:39;;;;;;;0.90;0.90;;;;;;;;;;5057162;28;20201;-80
2022/07/05 13:40:10;;;;;;;2.03;1.17;;;;;;;;;;5058207;28;20253;-81
2022/07/05 13:42:38;;;;;;;1.63;1.23;;;;;;;;;;5058919;28;20193;-81
2022/07/05 13:45:08;;;;;;;3.60;0.87;;;;;;;;;;5059995;28;20230;-80
2022/07/05 13:47:37;;;;;;;2.10;1.37;;;;;;;;;;5055346;28;20214;-80
2022/07/05 13:52:52;;;;;;;2.17;1.23;;;;;;;;;;5055177;28;20240;-81
2022/07/05 13:55:22;;;;;;;3.50;0.97;;;;;;;;;;5055605;28;20240;-80
2022/07/05 13:57:50;;;;;;;1.40;1.30;;;;;;;;;;5058617;28;20195;-80
2022/07/05 14:00:19;;;;;;;1.53;1.37;;;;;;;;;;5058015;28;20207;-81
2022/07/05 14:02:47;;;;;;;1.07;1.07;;;;;;;;;;5054372;28;20197;-81
2022/07/05 14:05:17;;;;;;;4.10;0.70;;;;;;;;;;5061402;28;20234;-81
2022/07/05 14:07:46;;;;;;;2.63;1.50;;;;;;;;;;5062453;28;20228;-81
2022/07/05 14:10:15;;;;;;;0.70;0.70;;;;;;;;;;5058090;28;20233;-81
2022/07/05 14:12:45;;;;;;;1.63;0.67;;;;;;;;;;5061334;28;20269;-81
2022/07/05 14:15:13;;;;;;;4.40;1.53;;;;;;;;;;5060171;28;20202;-81
2022/07/05 14:17:42;;;;;;;1.03;0.83;;;;;;;;;;5055366;28;20194;-81
2022/07/05 14:20:11;;;;;;;2.83;1.67;;;;;;;;;;5063085;28;20231;-81
2022/07/05 14:22:39;;;;;;;2.70;1.00;;;;;;;;;;5067025;28;20236;-81
2022/07/05 14:25:08;;;;;;;1.47;1.33;;;;;;;;;;5053187;28;20301;-80
2022/07/05 14:27:37;;;;;;;4.93;0.80;;;;;;;;;;5056476;28;20233;-80
2022/07/05 14:30:09;;;;;;;2.37;1.00;;;;;;;;;;5053298;28;20219;-80
2022/07/05 14:32:47;;;;;;;1.70;0.90;;;;;;;;;;5054306;28;20203;-80
2022/07/05 14:35:39;;;;;;;0.63;0.63;;;;;;;;;;5050606;28;20216;-80
2022/07/05 14:38:08;;;;;;;5.43;1.67;;;;;;;;;;5055734;28;20197;-80
2022/07/05 14:40:36;;;;;;;0.80;0.80;;;;;;;;;;5057784;28;20283;-80
2022/07/05 14:43:05;;;;;;;3.97;0.80;;;;;;;;;;5057593;28;20295;-80
2022/07/05 14:45:35;;;;;;;1.60;0.87;;;;;;;;;;5059036;28;20302;-80
2022/07/05 14:48:03;;;;;;;0.70;0.70;;;;;;;;;;5055002;28;20221;-81
2022/07/05 14:50:31;;;;;;;1.80;1.23;;;;;;;;;;5051785;28;20201;-80
2022/07/05 14:53:05;;;;;;;2.07;1.23;;;;;;;;;;5060539;28;20204;-81
2022/07/05 14:55:33;;;;;;;1.27;1.17;;;;;;;;;;5064196;28;20266;-81
2022/07/05 14:58:02;;;;;;;1.10;1.10;;;;;;;;;;5055732;28;20203;-81
2022/07/05 15:00:32;;;;;;;1.50;1.40;;;;;;;;;;5064199;28;20216;-82
2022/07/05 15:03:02;;;;;;;2.40;1.33;;;;;;;;;;5065697;28;20219;-81
2022/07/05 15:05:31;;;;;;;2.70;1.10;;;;;;;;;;5062073;28;20224;-80
2022/07/05 15:07:59;;;;;;;2.70;1.30;;;;;;;;;;5059579;28;20217;-81
2022/07/05 15:10:27;;;;;;;4.00;0.97;;;;;;;;;;5064215;28;20200;-81
2022/07/05 15:12:56;;;;;;;2.60;1.03;;;;;;;;;;5051285;28;20209;-81
2022/07/05 15:15:24;;;;;;;0.93;0.83;;;;;;;;;;5058641;28;20215;-82
2022/07/05 15:17:53;;;;;;;1.77;0.80;;;;;;;;;;5058919;28;20208;-81
2022/07/05 15:20:23;;;;;;;1.27;0.67;;;;;;;;;;5060350;28;20248;-81
2022/07/05 15:22:51;;;;;;;3.30;0.80;;;;;;;;;;5065906;28;20377;-81